Gaylord, MI

8:31 AM EDT on August 28, 2016 (GMT -0400)
Alpine Center | | Change Station

Elev 1385 ft 45.04 °N, 84.67 °W | Updated 27 seconds ago

Overcast
Overcast
64.6 °F
Feels Like 64.6 °F
N
4.0
Wind Variable Wind from SW

Today
High -- | Low -- °F
--% Chance of Precip.
Yesterday
High -- | Low -- °F
Precip. -- in
Pressure 30.16 in
Visibility 9.0 miles
Clouds Mostly Cloudy 600 ft
Overcast 2000 ft
Dew Point 61 °F
Humidity 88%
Rainfall 0.00 in
Snow Depth Not available.
6:56 AM 8:22 PM
Waning Crescent, 16% visible
SPECI KGLR 281225Z AUTO 27004KT 9SM BKN006 OVC020 19/17 A3016 RMK AO2 RAE1158 CIG 004V009 P0000 T01890167
Pressure 30.16 in
Visibility 9.0 miles
Clouds Mostly Cloudy 600 ft
Overcast 2000 ft
Dew Point 61 °F
Humidity 88%
Rainfall 0.00 in
Snow Depth Not available.
6:56 AM 8:22 PM
Waning Crescent, 16% visible
SPECI KGLR 281225Z AUTO 27004KT 9SM BKN006 OVC020 19/17 A3016 RMK AO2 RAE1158 CIG 004V009 P0000 T01890167

10-Day Weather Forecast

Almanac

Astronomy

Aug. 28, 2016 Rise Set
Actual Time
Civil Twilight
Nautical Twilight
Astronomical Twilight
Moon
Length of Visible Light
Length of Day
Tomorrow will be .
, % of the Moon is Illuminated

Today's Extremes

State Highs State Lows

Community

WunderPhotos

Upload Photos

1,935,557 photos uploaded!

WunderBlog® & News

Nearby

Air Quality

  Air Quality AQ Index Pollutant
Not available.

Snow Depth

Station Depth Elevation

Earthquake Activity

City Distance Mag. Time & Date
Minimum magnitude displayed is 2.5.

Coastal Water Temperatures

Place Temperature

Stations

Nearby Weather Stations

Station Location Temp. Windchill Dew Point Humidity Wind Precip. Elev Updated Type
                   

Watches & Warnings

There are currently no watches in effect.